sensor_id;sensor_type;location;lat;lon;timestamp;P1;durP1;ratioP1;P2;durP2;ratioP2
51438;SDS011;38816;51.142;-0.974;2022-08-11T00:00:06;4.68;;;1.60;;
51438;SDS011;38816;51.142;-0.974;2022-08-11T00:10:18;4.15;;;1.67;;
51438;SDS011;38816;51.142;-0.974;2022-08-11T00:12:53;4.40;;;1.52;;
51438;SDS011;38816;51.142;-0.974;2022-08-11T00:15:25;1.90;;;1.33;;
51438;SDS011;38816;51.142;-0.974;2022-08-11T00:18:01;5.50;;;1.70;;
51438;SDS011;38816;51.142;-0.974;2022-08-11T00:20:29;9.05;;;1.73;;
51438;SDS011;38816;51.142;-0.974;2022-08-11T00:23:00;3.22;;;1.88;;
51438;SDS011;38816;51.142;-0.974;2022-08-11T00:25:30;3.38;;;2.25;;
51438;SDS011;38816;51.142;-0.974;2022-08-11T00:28:21;5.07;;;1.90;;
51438;SDS011;38816;51.142;-0.974;2022-08-11T00:30:58;4.43;;;1.80;;
51438;SDS011;38816;51.142;-0.974;2022-08-11T00:33:38;4.68;;;1.63;;
51438;SDS011;38816;51.142;-0.974;2022-08-11T00:36:07;5.00;;;1.80;;
51438;SDS011;38816;51.142;-0.974;2022-08-11T00:38:36;3.60;;;2.05;;
51438;SDS011;38816;51.142;-0.974;2022-08-11T00:41:07;6.82;;;1.60;;
51438;SDS011;38816;51.142;-0.974;2022-08-11T00:51:56;5.70;;;2.15;;
51438;SDS011;38816;51.142;-0.974;2022-08-11T01:24:46;4.40;;;2.30;;
51438;SDS011;38816;51.142;-0.974;2022-08-11T01:50:15;5.95;;;1.80;;
51438;SDS011;38816;51.142;-0.974;2022-08-11T01:52:50;7.45;;;2.00;;
51438;SDS011;38816;51.142;-0.974;2022-08-11T02:06:54;4.53;;;2.10;;
51438;SDS011;38816;51.142;-0.974;2022-08-11T02:12:26;3.28;;;1.92;;
51438;SDS011;38816;51.142;-0.974;2022-08-11T02:15:19;5.70;;;2.33;;
51438;SDS011;38816;51.142;-0.974;2022-08-11T02:17:59;3.83;;;2.13;;
51438;SDS011;38816;51.142;-0.974;2022-08-11T02:20:30;8.10;;;2.88;;
51438;SDS011;38816;51.142;-0.974;2022-08-11T02:23:33;7.43;;;2.90;;
51438;SDS011;38816;51.142;-0.974;2022-08-11T02:26:20;8.52;;;3.60;;
51438;SDS011;38816;51.142;-0.974;2022-08-11T02:37:09;5.13;;;2.80;;
51438;SDS011;38816;51.142;-0.974;2022-08-11T02:40:17;5.28;;;3.25;;
51438;SDS011;38816;51.142;-0.974;2022-08-11T02:45:14;7.57;;;3.03;;
51438;SDS011;38816;51.142;-0.974;2022-08-11T02:48:02;2.90;;;2.50;;
51438;SDS011;38816;51.142;-0.974;2022-08-11T02:51:05;4.93;;;2.47;;
51438;SDS011;38816;51.142;-0.974;2022-08-11T02:53:43;4.13;;;2.53;;
51438;SDS011;38816;51.142;-0.974;2022-08-11T03:01:59;5.60;;;2.47;;
51438;SDS011;38816;51.142;-0.974;2022-08-11T03:07:28;3.72;;;2.10;;
51438;SDS011;38816;51.142;-0.974;2022-08-11T03:10:02;4.10;;;2.67;;
51438;SDS011;38816;51.142;-0.974;2022-08-11T03:12:44;4.20;;;2.38;;
51438;SDS011;38816;51.142;-0.974;2022-08-11T03:22:04;4.55;;;2.45;;
51438;SDS011;38816;51.142;-0.974;2022-08-11T03:27:34;6.82;;;2.40;;
51438;SDS011;38816;51.142;-0.974;2022-08-11T03:30:24;6.03;;;2.40;;
51438;SDS011;38816;51.142;-0.974;2022-08-11T03:36:04;5.35;;;2.53;;
51438;SDS011;38816;51.142;-0.974;2022-08-11T03:47:13;3.42;;;2.40;;
51438;SDS011;38816;51.142;-0.974;2022-08-11T03:50:39;4.53;;;2.30;;
51438;SDS011;38816;51.142;-0.974;2022-08-11T03:55:30;5.35;;;2.42;;
51438;SDS011;38816;51.142;-0.974;2022-08-11T04:01:05;6.32;;;2.50;;
51438;SDS011;38816;51.142;-0.974;2022-08-11T04:03:56;4.03;;;2.40;;
51438;SDS011;38816;51.142;-0.974;2022-08-11T04:30:11;6.43;;;2.78;;
51438;SDS011;38816;51.142;-0.974;2022-08-11T04:36:09;4.35;;;2.75;;
51438;SDS011;38816;51.142;-0.974;2022-08-11T04:48:05;4.05;;;2.80;;
51438;SDS011;38816;51.142;-0.974;2022-08-11T04:53:46;5.82;;;2.72;;
51438;SDS011;38816;51.142;-0.974;2022-08-11T04:56:49;4.97;;;2.65;;
51438;SDS011;38816;51.142;-0.974;2022-08-11T05:05:52;7.03;;;3.03;;
51438;SDS011;38816;51.142;-0.974;2022-08-11T05:11:41;4.93;;;2.78;;
51438;SDS011;38816;51.142;-0.974;2022-08-11T05:17:12;3.33;;;2.92;;
51438;SDS011;38816;51.142;-0.974;2022-08-11T05:19:59;8.35;;;3.10;;
51438;SDS011;38816;51.142;-0.974;2022-08-11T05:22:46;4.30;;;2.75;;
51438;SDS011;38816;51.142;-0.974;2022-08-11T05:25:33;5.53;;;2.88;;
51438;SDS011;38816;51.142;-0.974;2022-08-11T05:31:09;4.47;;;3.22;;
51438;SDS011;38816;51.142;-0.974;2022-08-11T05:36:47;5.88;;;3.45;;
51438;SDS011;38816;51.142;-0.974;2022-08-11T05:39:21;8.13;;;3.53;;
51438;SDS011;38816;51.142;-0.974;2022-08-11T05:42:07;5.13;;;3.47;;
51438;SDS011;38816;51.142;-0.974;2022-08-11T05:44:52;5.32;;;3.05;;
51438;SDS011;38816;51.142;-0.974;2022-08-11T05:47:40;6.50;;;3.05;;
51438;SDS011;38816;51.142;-0.974;2022-08-11T05:50:25;9.07;;;3.22;;
51438;SDS011;38816;51.142;-0.974;2022-08-11T05:53:11;6.60;;;3.08;;
51438;SDS011;38816;51.142;-0.974;2022-08-11T05:55:56;9.93;;;3.42;;
51438;SDS011;38816;51.142;-0.974;2022-08-11T05:58:44;10.25;;;3.88;;
51438;SDS011;38816;51.142;-0.974;2022-08-11T06:01:13;10.20;;;4.28;;
51438;SDS011;38816;51.142;-0.974;2022-08-11T06:03:47;9.38;;;4.45;;
51438;SDS011;38816;51.142;-0.974;2022-08-11T06:06:33;6.93;;;3.55;;
51438;SDS011;38816;51.142;-0.974;2022-08-11T06:09:00;5.95;;;3.35;;
51438;SDS011;38816;51.142;-0.974;2022-08-11T06:11:27;5.15;;;3.70;;
51438;SDS011;38816;51.142;-0.974;2022-08-11T06:13:53;8.82;;;3.53;;
51438;SDS011;38816;51.142;-0.974;2022-08-11T06:16:24;8.43;;;3.70;;
51438;SDS011;38816;51.142;-0.974;2022-08-11T06:18:52;8.32;;;3.83;;
51438;SDS011;38816;51.142;-0.974;2022-08-11T06:21:18;6.47;;;3.58;;
51438;SDS011;38816;51.142;-0.974;2022-08-11T06:23:46;4.53;;;3.63;;
51438;SDS011;38816;51.142;-0.974;2022-08-11T06:26:12;9.15;;;3.60;;
51438;SDS011;38816;51.142;-0.974;2022-08-11T06:28:39;5.47;;;3.65;;
51438;SDS011;38816;51.142;-0.974;2022-08-11T06:31:20;8.45;;;3.38;;
51438;SDS011;38816;51.142;-0.974;2022-08-11T06:36:22;8.75;;;4.95;;
51438;SDS011;38816;51.142;-0.974;2022-08-11T06:41:56;11.52;;;5.57;;
51438;SDS011;38816;51.142;-0.974;2022-08-11T06:44:29;8.98;;;5.18;;
51438;SDS011;38816;51.142;-0.974;2022-08-11T06:47:04;10.93;;;4.97;;
51438;SDS011;38816;51.142;-0.974;2022-08-11T06:49:35;11.50;;;4.78;;
51438;SDS011;38816;51.142;-0.974;2022-08-11T06:52:29;10.43;;;4.93;;
51438;SDS011;38816;51.142;-0.974;2022-08-11T06:54:58;8.77;;;4.38;;
51438;SDS011;38816;51.142;-0.974;2022-08-11T06:57:34;8.32;;;4.30;;
51438;SDS011;38816;51.142;-0.974;2022-08-11T07:00:20;9.07;;;3.70;;
51438;SDS011;38816;51.142;-0.974;2022-08-11T07:14:49;8.65;;;3.88;;
51438;SDS011;38816;51.142;-0.974;2022-08-11T07:17:43;6.22;;;3.65;;
51438;SDS011;38816;51.142;-0.974;2022-08-11T07:20:13;7.72;;;4.03;;
51438;SDS011;38816;51.142;-0.974;2022-08-11T07:23:00;7.05;;;4.55;;
51438;SDS011;38816;51.142;-0.974;2022-08-11T07:25:46;8.13;;;4.00;;
51438;SDS011;38816;51.142;-0.974;2022-08-11T07:28:34;6.97;;;3.40;;
51438;SDS011;38816;51.142;-0.974;2022-08-11T07:31:28;6.47;;;3.60;;
51438;SDS011;38816;51.142;-0.974;2022-08-11T07:37:02;6.90;;;3.50;;
51438;SDS011;38816;51.142;-0.974;2022-08-11T07:39:34;6.13;;;3.40;;
51438;SDS011;38816;51.142;-0.974;2022-08-11T07:42:05;8.10;;;3.55;;
51438;SDS011;38816;51.142;-0.974;2022-08-11T07:44:32;6.35;;;3.08;;
51438;SDS011;38816;51.142;-0.974;2022-08-11T07:47:19;8.70;;;3.40;;
51438;SDS011;38816;51.142;-0.974;2022-08-11T07:50:05;7.95;;;3.20;;
51438;SDS011;38816;51.142;-0.974;2022-08-11T07:52:52;7.20;;;3.70;;
51438;SDS011;38816;51.142;-0.974;2022-08-11T07:55:19;9.30;;;3.60;;
51438;SDS011;38816;51.142;-0.974;2022-08-11T07:57:49;6.63;;;3.78;;
51438;SDS011;38816;51.142;-0.974;2022-08-11T08:00:47;8.98;;;3.55;;
51438;SDS011;38816;51.142;-0.974;2022-08-11T08:03:33;4.85;;;3.67;;
51438;SDS011;38816;51.142;-0.974;2022-08-11T08:06:17;8.55;;;3.70;;
51438;SDS011;38816;51.142;-0.974;2022-08-11T08:09:02;9.07;;;3.50;;
51438;SDS011;38816;51.142;-0.974;2022-08-11T08:11:48;6.13;;;4.00;;
51438;SDS011;38816;51.142;-0.974;2022-08-11T08:14:33;7.40;;;3.53;;
51438;SDS011;38816;51.142;-0.974;2022-08-11T08:17:18;7.13;;;3.13;;
51438;SDS011;38816;51.142;-0.974;2022-08-11T08:20:04;6.18;;;2.65;;
51438;SDS011;38816;51.142;-0.974;2022-08-11T08:22:31;9.77;;;2.80;;
51438;SDS011;38816;51.142;-0.974;2022-08-11T08:24:59;6.03;;;2.80;;
51438;SDS011;38816;51.142;-0.974;2022-08-11T08:27:25;4.68;;;2.55;;
51438;SDS011;38816;51.142;-0.974;2022-08-11T08:29:51;5.70;;;2.47;;
51438;SDS011;38816;51.142;-0.974;2022-08-11T08:32:37;6.18;;;2.50;;
51438;SDS011;38816;51.142;-0.974;2022-08-11T08:35:04;9.55;;;2.70;;
51438;SDS011;38816;51.142;-0.974;2022-08-11T08:37:31;5.07;;;2.35;;
51438;SDS011;38816;51.142;-0.974;2022-08-11T08:39:57;5.30;;;2.10;;
51438;SDS011;38816;51.142;-0.974;2022-08-11T08:42:24;5.03;;;2.40;;
51438;SDS011;38816;51.142;-0.974;2022-08-11T08:45:01;6.93;;;2.22;;
51438;SDS011;38816;51.142;-0.974;2022-08-11T08:47:29;4.15;;;2.30;;
51438;SDS011;38816;51.142;-0.974;2022-08-11T08:50:00;8.90;;;1.95;;
51438;SDS011;38816;51.142;-0.974;2022-08-11T08:52:30;5.43;;;2.30;;
51438;SDS011;38816;51.142;-0.974;2022-08-11T08:55:03;5.93;;;1.98;;
51438;SDS011;38816;51.142;-0.974;2022-08-11T08:57:31;5.88;;;1.80;;
51438;SDS011;38816;51.142;-0.974;2022-08-11T08:59:59;9.98;;;2.13;;
51438;SDS011;38816;51.142;-0.974;2022-08-11T09:02:26;7.47;;;1.90;;
51438;SDS011;38816;51.142;-0.974;2022-08-11T09:04:52;4.60;;;2.10;;
51438;SDS011;38816;51.142;-0.974;2022-08-11T09:07:19;7.63;;;2.10;;
51438;SDS011;38816;51.142;-0.974;2022-08-11T09:09:51;6.78;;;2.17;;
51438;SDS011;38816;51.142;-0.974;2022-08-11T09:12:19;5.88;;;2.00;;
51438;SDS011;38816;51.142;-0.974;2022-08-11T09:14:48;3.25;;;1.90;;
51438;SDS011;38816;51.142;-0.974;2022-08-11T09:17:24;4.25;;;2.20;;
51438;SDS011;38816;51.142;-0.974;2022-08-11T09:20:03;3.65;;;2.25;;
51438;SDS011;38816;51.142;-0.974;2022-08-11T09:22:32;6.10;;;1.80;;
51438;SDS011;38816;51.142;-0.974;2022-08-11T09:25:18;2.28;;;1.80;;
51438;SDS011;38816;51.142;-0.974;2022-08-11T09:28:04;3.05;;;2.05;;
51438;SDS011;38816;51.142;-0.974;2022-08-11T09:30:34;4.97;;;2.20;;
51438;SDS011;38816;51.142;-0.974;2022-08-11T09:33:00;6.72;;;2.15;;
51438;SDS011;38816;51.142;-0.974;2022-08-11T09:35:29;3.95;;;2.03;;
51438;SDS011;38816;51.142;-0.974;2022-08-11T09:37:57;6.95;;;2.20;;
51438;SDS011;38816;51.142;-0.974;2022-08-11T09:40:42;4.07;;;1.88;;
51438;SDS011;38816;51.142;-0.974;2022-08-11T09:43:12;4.32;;;1.92;;
51438;SDS011;38816;51.142;-0.974;2022-08-11T09:46:00;3.20;;;1.80;;
51438;SDS011;38816;51.142;-0.974;2022-08-11T09:48:26;5.32;;;1.85;;
51438;SDS011;38816;51.142;-0.974;2022-08-11T09:50:56;4.60;;;2.03;;
51438;SDS011;38816;51.142;-0.974;2022-08-11T09:53:24;6.05;;;1.90;;
51438;SDS011;38816;51.142;-0.974;2022-08-11T09:55:54;4.50;;;2.00;;
51438;SDS011;38816;51.142;-0.974;2022-08-11T09:58:20;2.97;;;1.90;;
51438;SDS011;38816;51.142;-0.974;2022-08-11T10:00:47;6.43;;;2.10;;
51438;SDS011;38816;51.142;-0.974;2022-08-11T10:03:15;8.90;;;2.08;;
51438;SDS011;38816;51.142;-0.974;2022-08-11T10:05:44;5.03;;;1.60;;
51438;SDS011;38816;51.142;-0.974;2022-08-11T10:08:31;7.28;;;1.80;;
51438;SDS011;38816;51.142;-0.974;2022-08-11T10:11:02;3.22;;;1.80;;
51438;SDS011;38816;51.142;-0.974;2022-08-11T10:13:31;4.25;;;1.60;;
51438;SDS011;38816;51.142;-0.974;2022-08-11T10:16:18;3.13;;;1.55;;
51438;SDS011;38816;51.142;-0.974;2022-08-11T10:18:48;3.63;;;1.50;;
51438;SDS011;38816;51.142;-0.974;2022-08-11T10:23:55;4.70;;;1.35;;
51438;SDS011;38816;51.142;-0.974;2022-08-11T10:26:42;5.95;;;1.98;;
51438;SDS011;38816;51.142;-0.974;2022-08-11T10:29:30;1.67;;;1.30;;
51438;SDS011;38816;51.142;-0.974;2022-08-11T10:32:25;4.03;;;1.20;;
51438;SDS011;38816;51.142;-0.974;2022-08-11T10:35:11;3.10;;;1.55;;
51438;SDS011;38816;51.142;-0.974;2022-08-11T10:37:38;4.07;;;1.40;;
51438;SDS011;38816;51.142;-0.974;2022-08-11T10:40:07;4.78;;;1.60;;
51438;SDS011;38816;51.142;-0.974;2022-08-11T10:42:35;3.05;;;1.45;;
51438;SDS011;38816;51.142;-0.974;2022-08-11T10:45:21;3.65;;;1.50;;
51438;SDS011;38816;51.142;-0.974;2022-08-11T10:48:07;3.08;;;1.58;;
51438;SDS011;38816;51.142;-0.974;2022-08-11T10:50:34;4.70;;;1.67;;
51438;SDS011;38816;51.142;-0.974;2022-08-11T10:53:20;5.35;;;1.60;;
51438;SDS011;38816;51.142;-0.974;2022-08-11T10:56:05;1.92;;;1.30;;
51438;SDS011;38816;51.142;-0.974;2022-08-11T10:58:50;3.47;;;1.40;;
51438;SDS011;38816;51.142;-0.974;2022-08-11T11:01:25;3.75;;;1.55;;
51438;SDS011;38816;51.142;-0.974;2022-08-11T11:03:55;5.32;;;1.80;;
51438;SDS011;38816;51.142;-0.974;2022-08-11T11:11:55;3.92;;;1.98;;
51438;SDS011;38816;51.142;-0.974;2022-08-11T11:14:43;5.65;;;2.05;;
51438;SDS011;38816;51.142;-0.974;2022-08-11T11:17:29;3.25;;;1.60;;
51438;SDS011;38816;51.142;-0.974;2022-08-11T11:20:18;3.53;;;1.90;;
51438;SDS011;38816;51.142;-0.974;2022-08-11T11:22:48;3.50;;;1.90;;
51438;SDS011;38816;51.142;-0.974;2022-08-11T11:25:21;4.97;;;1.75;;
51438;SDS011;38816;51.142;-0.974;2022-08-11T11:31:01;5.13;;;2.05;;
51438;SDS011;38816;51.142;-0.974;2022-08-11T11:33:41;3.35;;;1.98;;
51438;SDS011;38816;51.142;-0.974;2022-08-11T11:39:09;3.47;;;1.77;;
51438;SDS011;38816;51.142;-0.974;2022-08-11T11:41:35;2.25;;;1.65;;
51438;SDS011;38816;51.142;-0.974;2022-08-11T11:44:00;3.67;;;1.60;;
51438;SDS011;38816;51.142;-0.974;2022-08-11T11:46:27;3.17;;;1.88;;
51438;SDS011;38816;51.142;-0.974;2022-08-11T11:48:54;1.73;;;1.40;;
51438;SDS011;38816;51.142;-0.974;2022-08-11T11:51:23;3.40;;;1.63;;
51438;SDS011;38816;51.142;-0.974;2022-08-11T11:53:50;2.30;;;1.48;;
51438;SDS011;38816;51.142;-0.974;2022-08-11T11:56:16;2.45;;;1.80;;
51438;SDS011;38816;51.142;-0.974;2022-08-11T11:58:43;3.30;;;1.90;;
51438;SDS011;38816;51.142;-0.974;2022-08-11T12:01:28;4.47;;;1.60;;
51438;SDS011;38816;51.142;-0.974;2022-08-11T12:03:55;2.45;;;1.70;;
51438;SDS011;38816;51.142;-0.974;2022-08-11T12:06:22;3.40;;;1.90;;
51438;SDS011;38816;51.142;-0.974;2022-08-11T12:08:50;5.07;;;1.63;;
51438;SDS011;38816;51.142;-0.974;2022-08-11T12:11:20;3.30;;;1.88;;
51438;SDS011;38816;51.142;-0.974;2022-08-11T12:14:06;2.80;;;1.75;;
51438;SDS011;38816;51.142;-0.974;2022-08-11T12:16:37;4.30;;;1.60;;
51438;SDS011;38816;51.142;-0.974;2022-08-11T12:19:07;3.08;;;1.42;;
51438;SDS011;38816;51.142;-0.974;2022-08-11T12:21:36;3.47;;;1.70;;
51438;SDS011;38816;51.142;-0.974;2022-08-11T12:24:22;1.98;;;1.50;;
51438;SDS011;38816;51.142;-0.974;2022-08-11T12:27:14;2.75;;;1.55;;
51438;SDS011;38816;51.142;-0.974;2022-08-11T12:29:51;1.63;;;1.50;;
51438;SDS011;38816;51.142;-0.974;2022-08-11T12:32:19;4.72;;;1.30;;
51438;SDS011;38816;51.142;-0.974;2022-08-11T12:34:46;3.28;;;1.45;;
51438;SDS011;38816;51.142;-0.974;2022-08-11T12:37:13;1.77;;;1.55;;
51438;SDS011;38816;51.142;-0.974;2022-08-11T12:39:45;2.58;;;1.65;;
51438;SDS011;38816;51.142;-0.974;2022-08-11T12:42:32;3.42;;;1.48;;
51438;SDS011;38816;51.142;-0.974;2022-08-11T12:45:17;2.80;;;1.50;;
51438;SDS011;38816;51.142;-0.974;2022-08-11T12:47:54;5.75;;;1.40;;
51438;SDS011;38816;51.142;-0.974;2022-08-11T12:50:54;4.32;;;1.65;;
51438;SDS011;38816;51.142;-0.974;2022-08-11T12:53:54;1.83;;;1.38;;
51438;SDS011;38816;51.142;-0.974;2022-08-11T12:56:24;4.57;;;1.20;;
51438;SDS011;38816;51.142;-0.974;2022-08-11T12:59:15;3.25;;;1.48;;
51438;SDS011;38816;51.142;-0.974;2022-08-11T13:01:59;1.98;;;1.50;;
51438;SDS011;38816;51.142;-0.974;2022-08-11T13:04:45;2.92;;;1.23;;
51438;SDS011;38816;51.142;-0.974;2022-08-11T13:07:20;5.72;;;1.50;;
51438;SDS011;38816;51.142;-0.974;2022-08-11T13:09:46;1.50;;;1.40;;
51438;SDS011;38816;51.142;-0.974;2022-08-11T13:12:14;1.95;;;1.20;;
51438;SDS011;38816;51.142;-0.974;2022-08-11T13:14:58;5.10;;;1.50;;
51438;SDS011;38816;51.142;-0.974;2022-08-11T13:17:25;2.10;;;1.48;;
51438;SDS011;38816;51.142;-0.974;2022-08-11T13:19:53;1.98;;;1.35;;
51438;SDS011;38816;51.142;-0.974;2022-08-11T13:22:22;4.22;;;1.42;;
51438;SDS011;38816;51.142;-0.974;2022-08-11T13:24:48;2.08;;;1.30;;
51438;SDS011;38816;51.142;-0.974;2022-08-11T13:27:19;2.45;;;1.27;;
51438;SDS011;38816;51.142;-0.974;2022-08-11T13:29:46;1.83;;;1.38;;
51438;SDS011;38816;51.142;-0.974;2022-08-11T13:32:13;9.20;;;1.70;;
51438;SDS011;38816;51.142;-0.974;2022-08-11T13:34:40;5.13;;;1.50;;
51438;SDS011;38816;51.142;-0.974;2022-08-11T13:37:08;4.10;;;1.27;;
51438;SDS011;38816;51.142;-0.974;2022-08-11T13:39:36;3.33;;;1.70;;
51438;SDS011;38816;51.142;-0.974;2022-08-11T13:42:02;2.72;;;1.35;;
51438;SDS011;38816;51.142;-0.974;2022-08-11T13:44:30;3.33;;;1.60;;
51438;SDS011;38816;51.142;-0.974;2022-08-11T13:46:59;4.57;;;1.50;;
51438;SDS011;38816;51.142;-0.974;2022-08-11T13:49:28;3.42;;;1.35;;
51438;SDS011;38816;51.142;-0.974;2022-08-11T13:51:55;4.15;;;1.50;;
51438;SDS011;38816;51.142;-0.974;2022-08-11T13:54:33;2.38;;;1.23;;
51438;SDS011;38816;51.142;-0.974;2022-08-11T13:57:02;2.88;;;1.50;;
51438;SDS011;38816;51.142;-0.974;2022-08-11T13:59:30;4.47;;;1.63;;
51438;SDS011;38816;51.142;-0.974;2022-08-11T14:02:04;3.55;;;1.40;;
51438;SDS011;38816;51.142;-0.974;2022-08-11T14:04:37;2.88;;;1.20;;
51438;SDS011;38816;51.142;-0.974;2022-08-11T14:07:07;1.50;;;1.20;;
51438;SDS011;38816;51.142;-0.974;2022-08-11T14:09:35;5.45;;;1.45;;
51438;SDS011;38816;51.142;-0.974;2022-08-11T14:12:06;5.97;;;1.40;;
51438;SDS011;38816;51.142;-0.974;2022-08-11T14:15:00;2.05;;;1.20;;
51438;SDS011;38816;51.142;-0.974;2022-08-11T14:17:29;4.75;;;1.30;;
51438;SDS011;38816;51.142;-0.974;2022-08-11T14:19:57;2.70;;;1.45;;
51438;SDS011;38816;51.142;-0.974;2022-08-11T14:22:28;3.20;;;1.30;;
51438;SDS011;38816;51.142;-0.974;2022-08-11T14:24:55;2.17;;;1.27;;
51438;SDS011;38816;51.142;-0.974;2022-08-11T14:27:22;7.70;;;1.33;;
51438;SDS011;38816;51.142;-0.974;2022-08-11T14:29:55;4.68;;;1.10;;
51438;SDS011;38816;51.142;-0.974;2022-08-11T14:32:21;3.30;;;1.40;;
51438;SDS011;38816;51.142;-0.974;2022-08-11T14:34:48;1.30;;;1.15;;
51438;SDS011;38816;51.142;-0.974;2022-08-11T14:37:18;3.17;;;1.38;;
51438;SDS011;38816;51.142;-0.974;2022-08-11T14:39:50;3.00;;;1.47;;
51438;SDS011;38816;51.142;-0.974;2022-08-11T14:42:18;8.52;;;1.23;;
51438;SDS011;38816;51.142;-0.974;2022-08-11T14:45:04;8.13;;;1.42;;
51438;SDS011;38816;51.142;-0.974;2022-08-11T14:47:51;6.88;;;1.27;;
51438;SDS011;38816;51.142;-0.974;2022-08-11T14:50:25;3.08;;;1.10;;
51438;SDS011;38816;51.142;-0.974;2022-08-11T14:55:31;3.10;;;1.10;;
51438;SDS011;38816;51.142;-0.974;2022-08-11T14:58:20;3.03;;;1.27;;
51438;SDS011;38816;51.142;-0.974;2022-08-11T15:00:52;2.67;;;1.25;;
51438;SDS011;38816;51.142;-0.974;2022-08-11T15:03:20;3.55;;;1.42;;
51438;SDS011;38816;51.142;-0.974;2022-08-11T15:05:48;3.08;;;1.00;;
51438;SDS011;38816;51.142;-0.974;2022-08-11T15:08:15;3.08;;;1.30;;
51438;SDS011;38816;51.142;-0.974;2022-08-11T15:10:43;2.53;;;1.00;;
51438;SDS011;38816;51.142;-0.974;2022-08-11T15:13:09;4.65;;;1.10;;
51438;SDS011;38816;51.142;-0.974;2022-08-11T15:15:35;1.52;;;1.00;;
51438;SDS011;38816;51.142;-0.974;2022-08-11T15:18:21;1.95;;;1.10;;
51438;SDS011;38816;51.142;-0.974;2022-08-11T15:20:48;4.18;;;1.30;;
51438;SDS011;38816;51.142;-0.974;2022-08-11T15:23:33;1.65;;;1.10;;
51438;SDS011;38816;51.142;-0.974;2022-08-11T15:26:20;4.97;;;1.05;;
51438;SDS011;38816;51.142;-0.974;2022-08-11T15:29:12;2.38;;;1.10;;
51438;SDS011;38816;51.142;-0.974;2022-08-11T15:32:02;1.90;;;1.10;;
51438;SDS011;38816;51.142;-0.974;2022-08-11T15:34:44;4.85;;;1.30;;
51438;SDS011;38816;51.142;-0.974;2022-08-11T15:37:33;3.53;;;1.20;;
51438;SDS011;38816;51.142;-0.974;2022-08-11T15:40:01;2.78;;;1.23;;
51438;SDS011;38816;51.142;-0.974;2022-08-11T15:45:53;2.95;;;1.08;;
51438;SDS011;38816;51.142;-0.974;2022-08-11T15:51:01;5.17;;;1.20;;
51438;SDS011;38816;51.142;-0.974;2022-08-11T15:56:01;1.70;;;1.10;;
51438;SDS011;38816;51.142;-0.974;2022-08-11T15:58:29;1.88;;;1.00;;
51438;SDS011;38816;51.142;-0.974;2022-08-11T16:01:18;2.03;;;0.98;;
51438;SDS011;38816;51.142;-0.974;2022-08-11T16:04:08;2.15;;;1.20;;
51438;SDS011;38816;51.142;-0.974;2022-08-11T16:09:44;1.50;;;0.93;;
51438;SDS011;38816;51.142;-0.974;2022-08-11T16:12:15;2.38;;;1.05;;
51438;SDS011;38816;51.142;-0.974;2022-08-11T16:14:45;3.35;;;1.25;;
51438;SDS011;38816;51.142;-0.974;2022-08-11T16:17:34;3.80;;;1.20;;
51438;SDS011;38816;51.142;-0.974;2022-08-11T16:20:07;3.47;;;0.80;;
51438;SDS011;38816;51.142;-0.974;2022-08-11T16:22:36;4.88;;;1.10;;
51438;SDS011;38816;51.142;-0.974;2022-08-11T16:25:09;1.45;;;1.00;;
51438;SDS011;38816;51.142;-0.974;2022-08-11T16:27:47;1.92;;;1.00;;
51438;SDS011;38816;51.142;-0.974;2022-08-11T16:30:16;1.38;;;0.90;;
51438;SDS011;38816;51.142;-0.974;2022-08-11T16:32:43;1.70;;;1.00;;
51438;SDS011;38816;51.142;-0.974;2022-08-11T16:35:17;1.25;;;1.10;;
51438;SDS011;38816;51.142;-0.974;2022-08-11T16:38:04;3.42;;;1.05;;
51438;SDS011;38816;51.142;-0.974;2022-08-11T16:40:51;2.72;;;1.00;;
51438;SDS011;38816;51.142;-0.974;2022-08-11T16:43:19;2.40;;;1.13;;
51438;SDS011;38816;51.142;-0.974;2022-08-11T16:46:06;0.90;;;0.65;;
51438;SDS011;38816;51.142;-0.974;2022-08-11T16:48:51;1.42;;;0.80;;
51438;SDS011;38816;51.142;-0.974;2022-08-11T16:51:18;1.13;;;0.90;;
51438;SDS011;38816;51.142;-0.974;2022-08-11T16:53:45;1.77;;;0.88;;
51438;SDS011;38816;51.142;-0.974;2022-08-11T16:56:12;2.15;;;1.15;;
51438;SDS011;38816;51.142;-0.974;2022-08-11T16:58:41;5.25;;;1.00;;
51438;SDS011;38816;51.142;-0.974;2022-08-11T17:01:27;2.15;;;0.98;;
51438;SDS011;38816;51.142;-0.974;2022-08-11T17:03:56;1.15;;;0.70;;
51438;SDS011;38816;51.142;-0.974;2022-08-11T17:06:43;1.83;;;0.90;;
51438;SDS011;38816;51.142;-0.974;2022-08-11T17:09:31;3.42;;;1.05;;
51438;SDS011;38816;51.142;-0.974;2022-08-11T17:12:19;2.13;;;0.85;;
51438;SDS011;38816;51.142;-0.974;2022-08-11T17:15:05;2.70;;;0.85;;
51438;SDS011;38816;51.142;-0.974;2022-08-11T17:17:55;1.35;;;0.95;;
51438;SDS011;38816;51.142;-0.974;2022-08-11T17:20:23;6.60;;;0.95;;
51438;SDS011;38816;51.142;-0.974;2022-08-11T17:22:51;5.15;;;0.93;;
51438;SDS011;38816;51.142;-0.974;2022-08-11T17:25:37;1.80;;;0.90;;
51438;SDS011;38816;51.142;-0.974;2022-08-11T17:28:03;3.70;;;1.00;;
51438;SDS011;38816;51.142;-0.974;2022-08-11T17:30:30;1.75;;;0.98;;
51438;SDS011;38816;51.142;-0.974;2022-08-11T17:33:16;7.70;;;1.00;;
51438;SDS011;38816;51.142;-0.974;2022-08-11T17:36:02;2.45;;;1.10;;
51438;SDS011;38816;51.142;-0.974;2022-08-11T17:38:29;1.15;;;0.90;;
51438;SDS011;38816;51.142;-0.974;2022-08-11T17:40:58;2.55;;;1.15;;
51438;SDS011;38816;51.142;-0.974;2022-08-11T17:43:44;2.20;;;1.00;;
51438;SDS011;38816;51.142;-0.974;2022-08-11T17:46:30;1.30;;;1.10;;
51438;SDS011;38816;51.142;-0.974;2022-08-11T17:49:16;2.80;;;1.30;;
51438;SDS011;38816;51.142;-0.974;2022-08-11T17:51:44;1.85;;;1.02;;
51438;SDS011;38816;51.142;-0.974;2022-08-11T17:54:29;3.20;;;1.10;;
51438;SDS011;38816;51.142;-0.974;2022-08-11T17:57:13;4.18;;;1.13;;
51438;SDS011;38816;51.142;-0.974;2022-08-11T17:59:59;1.27;;;1.00;;
51438;SDS011;38816;51.142;-0.974;2022-08-11T18:02:29;2.88;;;0.90;;
51438;SDS011;38816;51.142;-0.974;2022-08-11T18:05:18;4.43;;;1.00;;
51438;SDS011;38816;51.142;-0.974;2022-08-11T18:07:46;1.92;;;0.80;;
51438;SDS011;38816;51.142;-0.974;2022-08-11T18:10:32;1.38;;;1.05;;
51438;SDS011;38816;51.142;-0.974;2022-08-11T18:13:18;2.85;;;1.23;;
51438;SDS011;38816;51.142;-0.974;2022-08-11T18:16:04;1.92;;;1.10;;
51438;SDS011;38816;51.142;-0.974;2022-08-11T18:18:49;1.67;;;1.02;;
51438;SDS011;38816;51.142;-0.974;2022-08-11T18:21:34;1.65;;;1.20;;
51438;SDS011;38816;51.142;-0.974;2022-08-11T18:24:20;5.13;;;1.13;;
51438;SDS011;38816;51.142;-0.974;2022-08-11T18:27:08;3.78;;;1.20;;
51438;SDS011;38816;51.142;-0.974;2022-08-11T18:29:56;1.95;;;1.00;;
51438;SDS011;38816;51.142;-0.974;2022-08-11T18:32:43;1.92;;;1.05;;
51438;SDS011;38816;51.142;-0.974;2022-08-11T18:35:29;1.33;;;1.20;;
51438;SDS011;38816;51.142;-0.974;2022-08-11T18:38:16;1.50;;;1.25;;
51438;SDS011;38816;51.142;-0.974;2022-08-11T18:41:03;2.05;;;1.08;;
51438;SDS011;38816;51.142;-0.974;2022-08-11T18:43:49;2.15;;;1.13;;
51438;SDS011;38816;51.142;-0.974;2022-08-11T18:46:35;1.45;;;1.20;;
51438;SDS011;38816;51.142;-0.974;2022-08-11T18:49:21;8.48;;;1.40;;
51438;SDS011;38816;51.142;-0.974;2022-08-11T18:52:08;4.20;;;1.10;;
51438;SDS011;38816;51.142;-0.974;2022-08-11T18:54:54;1.83;;;1.10;;
51438;SDS011;38816;51.142;-0.974;2022-08-11T18:57:41;1.85;;;1.30;;
51438;SDS011;38816;51.142;-0.974;2022-08-11T19:00:28;2.05;;;1.45;;
51438;SDS011;38816;51.142;-0.974;2022-08-11T19:03:13;1.60;;;1.20;;
51438;SDS011;38816;51.142;-0.974;2022-08-11T19:06:00;2.20;;;1.00;;
51438;SDS011;38816;51.142;-0.974;2022-08-11T19:08:48;3.55;;;1.15;;
51438;SDS011;38816;51.142;-0.974;2022-08-11T19:11:36;2.35;;;1.40;;
51438;SDS011;38816;51.142;-0.974;2022-08-11T19:14:22;2.78;;;1.00;;
51438;SDS011;38816;51.142;-0.974;2022-08-11T19:17:11;10.05;;;1.40;;
51438;SDS011;38816;51.142;-0.974;2022-08-11T19:19:57;1.42;;;1.33;;
51438;SDS011;38816;51.142;-0.974;2022-08-11T19:22:43;6.35;;;1.50;;
51438;SDS011;38816;51.142;-0.974;2022-08-11T19:25:29;4.70;;;1.20;;